createdAt,value
2019-03-28T00:02:00.361Z,7.78
2019-03-28T00:04:28.937Z,7.10
2019-03-28T00:06:57.190Z,7.50
2019-03-28T00:09:25.244Z,8.80
2019-03-28T00:11:53.434Z,7.40
2019-03-28T00:14:22.980Z,7.28
2019-03-28T00:16:51.480Z,6.87
2019-03-28T00:19:19.284Z,7.97
2019-03-28T00:21:47.511Z,6.95
2019-03-28T00:24:24.104Z,7.55
2019-03-28T00:26:52.493Z,6.60
2019-03-28T00:29:20.720Z,8.10
2019-03-28T00:31:49.305Z,8.25
2019-03-28T00:34:17.196Z,8.18
2019-03-28T00:36:45.351Z,9.70
2019-03-28T00:39:12.889Z,8.70
2019-03-28T00:41:40.965Z,7.78
2019-03-28T00:44:08.815Z,9.38
2019-03-28T00:46:37.331Z,8.23
2019-03-28T00:49:05.427Z,8.05
2019-03-28T00:51:33.786Z,8.15
2019-03-28T00:54:02.101Z,8.25
2019-03-28T00:56:38.065Z,7.92
2019-03-28T00:59:00.327Z,8.10
2019-03-28T01:01:27.936Z,8.38
2019-03-28T01:03:55.952Z,8.35
2019-03-28T01:06:24.019Z,8.45
2019-03-28T01:08:52.006Z,8.98
2019-03-28T01:11:35.996Z,9.35
2019-03-28T01:14:03.656Z,9.15
2019-03-28T01:16:31.524Z,8.40
2019-03-28T01:18:59.907Z,9.40
2019-03-28T01:21:37.994Z,8.68
2019-03-28T01:24:05.771Z,9.83
2019-03-28T01:26:33.313Z,8.90
2019-03-28T01:29:01.344Z,7.75
2019-03-28T01:31:29.487Z,9.65
2019-03-28T01:33:57.894Z,8.53
2019-03-28T01:36:25.822Z,9.80
2019-03-28T01:38:53.939Z,8.48
2019-03-28T01:41:21.802Z,9.80
2019-03-28T01:43:49.688Z,9.85
2019-03-28T01:46:20.652Z,10.80
2019-03-28T01:48:48.570Z,10.23
2019-03-28T01:51:16.263Z,9.15
2019-03-28T01:53:43.807Z,10.40
2019-03-28T01:56:15.349Z,11.55
2019-03-28T01:58:43.427Z,10.93
2019-03-28T02:01:11.573Z,11.18
2019-03-28T02:03:39.660Z,12.00
2019-03-28T02:06:07.787Z,11.33
2019-03-28T02:08:44.554Z,11.57
2019-03-28T02:11:12.173Z,11.63
2019-03-28T02:13:40.031Z,10.93
2019-03-28T02:16:08.150Z,10.08
2019-03-28T02:18:35.981Z,10.35
2019-03-28T02:21:03.981Z,12.68
2019-03-28T02:23:31.701Z,11.63
2019-03-28T02:25:59.790Z,12.28
2019-03-28T02:28:29.776Z,10.95
2019-03-28T02:30:57.915Z,11.10
2019-03-28T02:33:25.730Z,11.10
2019-03-28T02:35:53.785Z,10.70
2019-03-28T02:38:21.651Z,11.03
2019-03-28T02:40:49.715Z,10.15
2019-03-28T02:43:19.792Z,10.40
2019-03-28T02:45:48.409Z,8.48
2019-03-28T02:48:16.065Z,9.40
2019-03-28T02:50:44.143Z,10.72
2019-03-28T02:53:12.008Z,11.08
2019-03-28T02:55:40.081Z,10.20
2019-03-28T02:58:07.982Z,10.48
2019-03-28T03:00:36.742Z,9.93
2019-03-28T03:03:04.898Z,9.95
2019-03-28T03:05:32.906Z,11.83
2019-03-28T03:08:00.779Z,10.80
2019-03-28T03:10:27.390Z,11.70
2019-03-28T03:12:55.185Z,9.10
2019-03-28T03:15:23.199Z,9.98
2019-03-28T03:17:51.131Z,10.18
2019-03-28T03:20:18.988Z,10.98
2019-03-28T03:22:47.033Z,11.50
2019-03-28T03:25:14.699Z,10.10
2019-03-28T03:27:57.205Z,11.08
2019-03-28T03:30:13.148Z,10.82
2019-03-28T03:32:41.124Z,11.68
2019-03-28T03:35:09.002Z,11.33
2019-03-28T03:37:37.105Z,12.68
2019-03-28T03:40:07.877Z,11.22
2019-03-28T03:42:35.631Z,13.10
2019-03-28T03:45:05.996Z,13.65
2019-03-28T03:47:34.507Z,13.85
2019-03-28T03:50:03.235Z,12.85
2019-03-28T03:52:30.949Z,17.57
2019-03-28T03:54:59.127Z,14.50
2019-03-28T03:57:26.988Z,14.18
2019-03-28T03:59:55.319Z,14.10
2019-03-28T04:02:23.652Z,12.70
2019-03-28T04:04:51.413Z,14.03
2019-03-28T04:07:19.330Z,14.90
2019-03-28T04:09:47.297Z,14.55
2019-03-28T04:12:15.121Z,14.70
2019-03-28T04:14:43.652Z,13.50
2019-03-28T04:17:11.605Z,14.70
2019-03-28T04:19:39.712Z,14.80
2019-03-28T04:22:07.770Z,15.85
2019-03-28T04:24:35.654Z,15.10
2019-03-28T04:27:03.625Z,13.68
2019-03-28T04:29:31.394Z,13.03
2019-03-28T04:31:59.218Z,13.45
2019-03-28T04:34:27.150Z,12.85
2019-03-28T04:36:57.923Z,13.10
2019-03-28T04:39:26.472Z,13.90
2019-03-28T04:41:53.968Z,12.60
2019-03-28T04:44:22.152Z,12.20
2019-03-28T04:46:50.383Z,12.03
2019-03-28T04:49:18.650Z,11.80
2019-03-28T04:51:47.911Z,12.58
2019-03-28T04:54:15.867Z,12.82
2019-03-28T04:56:43.986Z,12.47
2019-03-28T04:59:12.204Z,12.55
2019-03-28T05:01:40.375Z,13.45
2019-03-28T05:04:08.311Z,12.58
2019-03-28T05:06:38.125Z,12.03
2019-03-28T05:09:06.150Z,14.15
2019-03-28T05:11:33.631Z,13.53
2019-03-28T05:14:01.346Z,12.80
2019-03-28T05:16:29.168Z,13.40
2019-03-28T05:18:57.547Z,13.30
2019-03-28T05:21:25.599Z,13.50
2019-03-28T05:23:53.387Z,14.10
2019-03-28T05:26:21.018Z,13.13
2019-03-28T05:28:57.527Z,15.00
2019-03-28T05:31:18.145Z,13.70
2019-03-28T05:33:45.599Z,15.38
2019-03-28T05:36:15.363Z,14.15
2019-03-28T05:38:45.843Z,13.10
2019-03-28T05:41:17.296Z,14.38
2019-03-28T05:43:45.538Z,13.85
2019-03-28T05:46:17.362Z,13.30
2019-03-28T05:48:45.347Z,15.15
2019-03-28T05:51:12.956Z,12.88
2019-03-28T05:53:43.988Z,14.68
2019-03-28T05:56:12.531Z,15.28
2019-03-28T05:58:40.376Z,13.80
2019-03-28T06:01:08.375Z,14.38
2019-03-28T06:03:36.739Z,15.60
2019-03-28T06:06:05.096Z,14.80
2019-03-28T06:08:32.762Z,17.67
2019-03-28T06:11:01.211Z,15.83
2019-03-28T06:13:29.945Z,16.80
2019-03-28T06:15:57.865Z,16.02
2019-03-28T06:18:26.104Z,15.70
2019-03-28T06:20:55.390Z,16.02
2019-03-28T06:23:23.905Z,16.25
2019-03-28T06:25:52.910Z,17.07
2019-03-28T06:28:20.892Z,15.48
2019-03-28T06:31:00.842Z,14.73
2019-03-28T06:33:42.193Z,14.83
2019-03-28T06:36:22.093Z,15.63
2019-03-28T06:39:02.417Z,14.47
2019-03-28T06:41:44.338Z,14.58
2019-03-28T06:44:25.531Z,17.15
2019-03-28T06:47:05.153Z,16.50
2019-03-28T06:49:45.380Z,15.85
2019-03-28T06:52:25.404Z,15.88
2019-03-28T06:55:05.225Z,16.30
2019-03-28T06:57:45.332Z,15.75
2019-03-28T07:00:25.256Z,16.15
2019-03-28T07:03:05.237Z,14.93
2019-03-28T07:05:45.461Z,15.93
2019-03-28T07:08:25.459Z,15.63
2019-03-28T07:11:05.285Z,15.37
2019-03-28T07:13:45.713Z,16.70
2019-03-28T07:16:25.465Z,14.80
2019-03-28T07:19:05.355Z,15.23
2019-03-28T07:21:45.641Z,14.33
2019-03-28T07:24:25.272Z,17.43
2019-03-28T07:27:10.295Z,14.40
2019-03-28T07:29:53.093Z,15.60
2019-03-28T07:32:33.218Z,14.30
2019-03-28T07:35:12.995Z,16.40
2019-03-28T07:37:53.390Z,15.33
2019-03-28T07:40:33.649Z,16.20
2019-03-28T07:43:13.652Z,16.10
2019-03-28T07:45:53.781Z,16.10
2019-03-28T07:48:33.585Z,17.43
2019-03-28T07:51:13.474Z,16.07
2019-03-28T07:53:53.783Z,16.43
2019-03-28T07:56:34.006Z,16.23
2019-03-28T07:59:13.599Z,15.43
2019-03-28T08:01:53.620Z,17.17
2019-03-28T08:04:33.824Z,17.03
2019-03-28T08:07:13.676Z,17.30
2019-03-28T08:09:53.756Z,18.07
2019-03-28T08:12:33.892Z,18.87
2019-03-28T08:15:14.116Z,18.60
2019-03-28T08:17:54.134Z,19.47
2019-03-28T08:20:34.324Z,19.63
2019-03-28T08:23:14.526Z,16.97
2019-03-28T08:25:54.112Z,19.07
2019-03-28T08:28:34.041Z,18.80
2019-03-28T08:31:14.927Z,18.03
2019-03-28T08:33:55.355Z,19.50
2019-03-28T08:36:35.145Z,17.93
2019-03-28T08:39:16.387Z,18.77
2019-03-28T08:41:56.811Z,17.77
2019-03-28T08:44:24.822Z,19.43
2019-03-28T08:47:11.974Z,21.63
2019-03-28T08:49:52.014Z,19.60
2019-03-28T08:52:31.929Z,18.80
2019-03-28T08:55:12.073Z,21.00
2019-03-28T08:57:52.197Z,18.90
2019-03-28T09:00:50.440Z,22.10
2019-03-28T09:03:15.281Z,20.20
2019-03-28T09:05:59.046Z,20.07
2019-03-28T09:08:39.241Z,19.60
2019-03-28T09:11:21.360Z,20.10
2019-03-28T09:14:00.706Z,23.07
2019-03-28T09:19:21.816Z,21.33
2019-03-28T09:22:03.816Z,21.70
2019-03-28T09:24:50.397Z,22.47
2019-03-28T09:27:30.055Z,21.53
2019-03-28T09:30:10.080Z,21.90
2019-03-28T09:32:50.020Z,21.30
2019-03-28T09:35:30.202Z,20.03
2019-03-28T09:38:10.458Z,18.93
2019-03-28T09:40:54.929Z,19.27
2019-03-28T09:43:34.501Z,20.53
2019-03-28T09:46:14.798Z,17.63
2019-03-28T09:48:55.141Z,18.40
2019-03-28T09:51:35.408Z,18.17
2019-03-28T09:54:16.055Z,18.77
2019-03-28T09:56:56.282Z,17.67
2019-03-28T09:59:36.781Z,20.10
2019-03-28T10:02:16.344Z,17.73
2019-03-28T10:04:56.393Z,17.70
2019-03-28T10:07:38.523Z,18.70
2019-03-28T10:10:18.544Z,18.20
2019-03-28T10:12:58.683Z,17.90
2019-03-28T10:15:38.369Z,18.60
2019-03-28T10:18:19.260Z,19.37
2019-03-28T10:21:00.906Z,17.80
2019-03-28T10:23:42.282Z,17.67
2019-03-28T10:26:22.181Z,17.10
2019-03-28T10:29:01.895Z,16.93
2019-03-28T10:31:43.845Z,17.47
2019-03-28T10:34:24.387Z,16.33
2019-03-28T10:37:04.167Z,14.10
2019-03-28T10:39:44.472Z,14.40
2019-03-28T10:42:24.408Z,15.77
2019-03-28T10:45:04.382Z,16.50
2019-03-28T10:47:45.421Z,14.40
2019-03-28T10:50:39.941Z,13.60
2019-03-28T10:53:07.800Z,14.77
2019-03-28T10:55:48.190Z,14.50
2019-03-28T10:58:28.128Z,12.50
2019-03-28T11:00:56.509Z,14.40
2019-03-28T11:03:44.908Z,12.10
2019-03-28T11:06:26.888Z,9.10
2019-03-28T11:09:06.935Z,7.70
2019-03-28T11:11:47.351Z,10.10
2019-03-28T11:14:28.218Z,8.13
2019-03-28T11:17:07.988Z,8.47
2019-03-28T11:19:48.784Z,7.53
2019-03-28T11:22:28.243Z,10.03
2019-03-28T11:25:09.038Z,10.47
2019-03-28T11:27:49.543Z,8.70
2019-03-28T11:30:29.516Z,7.60
2019-03-28T11:35:50.735Z,8.53
2019-03-28T11:38:30.492Z,9.60
2019-03-28T11:41:12.002Z,7.43
2019-03-28T11:43:51.816Z,7.20
2019-03-28T11:46:31.909Z,7.60
2019-03-28T11:49:12.012Z,8.30
2019-03-28T11:51:52.052Z,7.70
2019-03-28T11:54:32.376Z,8.40
2019-03-28T11:57:15.561Z,7.70
2019-03-28T11:59:54.034Z,8.10
2019-03-28T12:02:34.121Z,9.00
2019-03-28T12:05:14.211Z,8.00
2019-03-28T12:07:54.272Z,8.73
2019-03-28T12:10:35.315Z,8.80
2019-03-28T12:13:15.425Z,9.83
2019-03-28T12:15:56.542Z,9.60
2019-03-28T12:18:36.110Z,8.93
2019-03-28T12:24:05.663Z,8.37
2019-03-28T12:26:45.414Z,9.00
2019-03-28T12:29:25.193Z,8.30
2019-03-28T12:32:13.955Z,7.73
2019-03-28T12:34:46.761Z,9.40
2019-03-28T12:37:29.555Z,6.40
2019-03-28T12:40:09.508Z,7.37
2019-03-28T12:42:50.034Z,5.87
2019-03-28T12:45:30.419Z,5.80
2019-03-28T12:48:10.089Z,6.40
2019-03-28T12:50:58.695Z,7.00
2019-03-28T12:53:33.436Z,7.80
2019-03-28T12:56:13.357Z,7.40
2019-03-28T12:58:53.615Z,6.40
2019-03-28T13:01:34.030Z,6.67
2019-03-28T13:04:15.293Z,6.57
2019-03-28T13:06:55.691Z,6.23
2019-03-28T13:09:35.864Z,7.57
2019-03-28T13:12:17.589Z,7.07
2019-03-28T13:14:57.550Z,8.67
2019-03-28T13:17:37.944Z,8.00
2019-03-28T13:20:18.028Z,7.63
2019-03-28T13:22:58.131Z,7.77
2019-03-28T13:25:37.978Z,7.30
2019-03-28T13:28:18.017Z,6.40
2019-03-28T13:30:58.185Z,5.90
2019-03-28T13:33:38.180Z,7.53
2019-03-28T13:36:18.470Z,7.00
2019-03-28T13:38:58.332Z,6.77
2019-03-28T13:41:38.571Z,6.80
2019-03-28T13:44:18.868Z,6.57
2019-03-28T13:46:58.654Z,5.90
2019-03-28T13:49:39.381Z,5.70
2019-03-28T13:52:19.414Z,5.43
2019-03-28T13:54:59.219Z,5.97
2019-03-28T13:57:43.233Z,4.37
2019-03-28T14:00:22.261Z,4.80
2019-03-28T14:03:01.953Z,5.50
2019-03-28T14:05:41.988Z,5.37
2019-03-28T14:08:22.203Z,5.17
2019-03-28T14:11:03.482Z,5.97
2019-03-28T14:13:31.553Z,5.30
2019-03-28T14:16:18.740Z,6.30
2019-03-28T14:18:58.381Z,5.43
2019-03-28T14:21:38.450Z,5.10
2019-03-28T14:24:18.570Z,4.80
2019-03-28T14:26:58.448Z,4.87
2019-03-28T14:29:38.617Z,3.80
2019-03-28T14:32:18.486Z,4.80
2019-03-28T14:34:58.745Z,4.40
2019-03-28T14:37:41.024Z,3.97
2019-03-28T14:40:20.955Z,3.97
2019-03-28T14:43:01.835Z,4.27
2019-03-28T14:45:43.197Z,4.57
2019-03-28T14:48:23.498Z,4.50
2019-03-28T14:51:03.161Z,4.20
2019-03-28T14:53:43.416Z,4.50
2019-03-28T14:56:23.615Z,4.23
2019-03-28T14:59:03.517Z,3.83
2019-03-28T15:01:43.345Z,3.50
2019-03-28T15:04:23.562Z,3.23
2019-03-28T15:07:03.064Z,3.37
2019-03-28T15:09:44.017Z,4.00
2019-03-28T15:12:24.320Z,3.60
2019-03-28T15:15:04.351Z,3.97
2019-03-28T15:17:45.119Z,4.13
2019-03-28T15:20:27.478Z,3.90
2019-03-28T15:23:07.700Z,3.83
2019-03-28T15:25:47.720Z,4.37
2019-03-28T15:28:27.669Z,3.93
2019-03-28T15:31:07.930Z,4.60
2019-03-28T15:33:47.763Z,4.60
2019-03-28T15:36:27.776Z,4.70
2019-03-28T15:39:08.111Z,5.57
2019-03-28T15:41:49.681Z,5.10
2019-03-28T15:44:30.501Z,4.93
2019-03-28T15:47:09.805Z,5.60
2019-03-28T15:49:50.415Z,5.40
2019-03-28T15:52:30.194Z,4.47
2019-03-28T15:55:10.581Z,4.90
2019-03-28T15:57:50.820Z,4.90
2019-03-28T16:00:31.059Z,4.70
2019-03-28T16:03:10.945Z,4.33
2019-03-28T16:05:58.237Z,4.47
2019-03-28T16:08:32.969Z,4.30
2019-03-28T16:11:13.198Z,4.77
2019-03-28T16:13:53.458Z,4.40
2019-03-28T16:16:33.237Z,4.10
2019-03-28T16:19:13.297Z,4.30
2019-03-28T16:21:53.225Z,3.90
2019-03-28T16:24:33.282Z,3.87
2019-03-28T16:27:13.406Z,3.97
2019-03-28T16:29:54.430Z,4.30
2019-03-28T16:32:34.339Z,4.47
2019-03-28T16:35:14.524Z,4.30
2019-03-28T16:37:54.356Z,5.83
2019-03-28T16:40:34.390Z,5.23
2019-03-28T16:43:14.760Z,4.90
2019-03-28T16:45:54.888Z,4.90
2019-03-28T16:48:34.730Z,5.13
2019-03-28T16:51:17.395Z,3.97
2019-03-28T16:53:56.743Z,4.67
2019-03-28T16:56:36.673Z,4.80
2019-03-28T16:59:15.175Z,5.40
2019-03-28T17:02:02.325Z,4.33
2019-03-28T17:04:42.679Z,4.97
2019-03-28T17:07:26.051Z,4.57
2019-03-28T17:10:05.771Z,4.33
2019-03-28T17:12:45.388Z,4.60
2019-03-28T17:15:25.933Z,4.37
2019-03-28T17:18:05.674Z,4.90
2019-03-28T17:20:46.178Z,5.60
2019-03-28T17:23:26.370Z,4.83
2019-03-28T17:26:06.196Z,4.67
2019-03-28T17:28:46.421Z,5.27
2019-03-28T17:31:26.815Z,4.73
2019-03-28T17:36:46.226Z,5.43
2019-03-28T17:39:27.435Z,4.87
2019-03-28T17:42:07.727Z,5.27
2019-03-28T17:44:47.347Z,7.50
2019-03-28T17:47:27.315Z,6.50
2019-03-28T17:50:07.381Z,4.70
2019-03-28T17:52:47.243Z,5.90
2019-03-28T17:55:27.374Z,5.23
2019-03-28T17:58:07.171Z,4.67
2019-03-28T18:00:47.366Z,4.50
2019-03-28T18:03:31.461Z,5.53
2019-03-28T18:06:09.397Z,4.00
2019-03-28T18:08:49.411Z,5.23
2019-03-28T18:11:29.505Z,5.10
2019-03-28T18:14:09.916Z,4.83
2019-03-28T18:16:49.877Z,5.70
2019-03-28T18:19:29.771Z,5.70
2019-03-28T18:22:09.847Z,5.20
2019-03-28T18:24:49.951Z,5.73
2019-03-28T18:27:30.369Z,5.60
2019-03-28T18:30:10.821Z,5.17
2019-03-28T18:32:51.095Z,5.73
2019-03-28T18:35:31.180Z,6.23
2019-03-28T18:38:11.384Z,6.97
2019-03-28T18:40:51.335Z,5.90
2019-03-28T18:43:31.807Z,5.80
2019-03-28T18:46:14.735Z,5.97
2019-03-28T18:48:55.130Z,5.87
2019-03-28T18:51:34.946Z,6.30
2019-03-28T18:54:15.080Z,6.60
2019-03-28T18:56:55.406Z,6.67
2019-03-28T18:59:35.456Z,7.50
2019-03-28T19:02:15.201Z,7.70
2019-03-28T19:04:55.921Z,7.40
2019-03-28T19:07:36.701Z,7.83
2019-03-28T19:10:18.069Z,8.00
2019-03-28T19:12:59.073Z,7.80
2019-03-28T19:15:38.896Z,8.00
2019-03-28T19:18:19.112Z,8.90
2019-03-28T19:20:59.282Z,8.37
2019-03-28T19:23:39.105Z,8.60
2019-03-28T19:26:19.172Z,9.30
2019-03-28T19:29:00.132Z,8.60
2019-03-28T19:31:40.535Z,8.87
2019-03-28T19:34:21.210Z,9.73
2019-03-28T19:37:00.517Z,10.00
2019-03-28T19:39:40.802Z,9.70
2019-03-28T19:42:22.604Z,9.63
2019-03-28T19:45:03.450Z,10.47
2019-03-28T19:50:31.099Z,10.53
2019-03-28T19:53:11.857Z,9.90
2019-03-28T19:55:52.419Z,10.60
2019-03-28T19:58:34.976Z,10.80
2019-03-28T20:01:14.217Z,9.60
2019-03-28T20:03:55.093Z,10.33
2019-03-28T20:06:35.669Z,9.87
2019-03-28T20:09:16.756Z,9.90
2019-03-28T20:12:02.843Z,10.03
2019-03-28T20:14:47.085Z,10.10
2019-03-28T20:17:27.779Z,9.80
2019-03-28T20:20:07.619Z,10.50
2019-03-28T20:22:47.942Z,9.93
2019-03-28T20:25:27.739Z,9.67
2019-03-28T20:28:07.894Z,9.63
2019-03-28T20:30:48.087Z,10.60
2019-03-28T20:33:27.987Z,10.27
2019-03-28T20:36:35.438Z,10.10
2019-03-28T20:39:03.302Z,11.37
2019-03-28T20:41:32.858Z,10.33
2019-03-28T20:44:12.467Z,10.80
2019-03-28T20:49:32.511Z,11.10
2019-03-28T20:52:12.837Z,11.67
2019-03-28T20:54:52.857Z,12.50
2019-03-28T20:57:32.503Z,10.83
2019-03-28T21:00:13.237Z,10.77
2019-03-28T21:02:53.475Z,10.27
2019-03-28T21:05:33.519Z,11.53
2019-03-28T21:08:13.685Z,10.73
2019-03-28T21:10:53.483Z,9.70
2019-03-28T21:13:33.924Z,9.60
2019-03-28T21:16:13.576Z,10.27
2019-03-28T21:18:55.652Z,11.43
2019-03-28T21:21:35.412Z,11.97
2019-03-28T21:24:15.506Z,10.40
2019-03-28T21:26:55.487Z,11.07
2019-03-28T21:29:47.972Z,11.07
2019-03-28T21:32:15.323Z,9.67
2019-03-28T21:35:02.242Z,10.00
2019-03-28T21:37:42.481Z,11.47
2019-03-28T21:40:24.744Z,9.77
2019-03-28T21:43:04.891Z,10.40
2019-03-28T21:45:44.808Z,10.60
2019-03-28T21:48:24.500Z,8.83
2019-03-28T21:51:02.484Z,10.93
2019-03-28T21:56:44.300Z,10.63
2019-03-28T21:59:24.542Z,11.00
2019-03-28T22:02:04.200Z,9.90
2019-03-28T22:04:44.389Z,9.57
2019-03-28T22:07:25.416Z,10.30
2019-03-28T22:10:08.449Z,9.10
2019-03-28T22:12:47.496Z,9.57
2019-03-28T22:15:27.847Z,9.37
2019-03-28T22:18:07.982Z,10.60
2019-03-28T22:20:48.026Z,9.63
2019-03-28T22:23:27.862Z,9.43
2019-03-28T22:26:08.175Z,9.20
2019-03-28T22:28:48.077Z,9.50
2019-03-28T22:31:28.017Z,10.60
2019-03-28T22:34:08.175Z,11.23
2019-03-28T22:36:57.303Z,9.67
2019-03-28T22:39:31.220Z,9.97
2019-03-28T22:42:11.372Z,9.20
2019-03-28T22:44:51.492Z,10.37
2019-03-28T22:47:34.817Z,9.90
2019-03-28T22:50:13.196Z,10.17
2019-03-28T22:52:53.497Z,9.93
2019-03-28T22:55:33.563Z,8.63
2019-03-28T22:58:13.905Z,10.90
2019-03-28T23:00:54.665Z,10.77
2019-03-28T23:03:34.783Z,8.97
2019-03-28T23:06:14.215Z,10.50
2019-03-28T23:08:54.509Z,8.60
2019-03-28T23:11:34.586Z,8.73
2019-03-28T23:14:14.509Z,8.43
2019-03-28T23:16:55.069Z,10.70
2019-03-28T23:19:35.657Z,8.60
2019-03-28T23:22:15.742Z,9.03
2019-03-28T23:24:55.589Z,10.60
2019-03-28T23:27:35.708Z,10.83
2019-03-28T23:30:15.853Z,10.00
2019-03-28T23:32:55.951Z,8.83
2019-03-28T23:35:36.025Z,11.33
2019-03-28T23:38:16.211Z,8.90
2019-03-28T23:40:56.511Z,10.00
2019-03-28T23:43:37.288Z,9.47
2019-03-28T23:46:17.800Z,9.00
2019-03-28T23:48:57.593Z,8.57
2019-03-28T23:51:37.949Z,9.80
2019-03-28T23:54:17.931Z,8.70
2019-03-28T23:56:57.925Z,10.00
2019-03-28T23:59:37.834Z,10.37
